sensor_id;sensor_type;location;lat;lon;timestamp;P1;durP1;ratioP1;P2;durP2;ratioP2
75021;SDS011;63583;49.976;20.182;2023-07-22T00:02:22;7.78;;;5.82;;
75021;SDS011;63583;49.976;20.182;2023-07-22T00:04:48;7.25;;;5.65;;
75021;SDS011;63583;49.976;20.182;2023-07-22T00:07:15;7.80;;;5.72;;
75021;SDS011;63583;49.976;20.182;2023-07-22T00:09:43;8.25;;;6.35;;
75021;SDS011;63583;49.976;20.182;2023-07-22T00:12:09;7.65;;;6.50;;
75021;SDS011;63583;49.976;20.182;2023-07-22T00:14:39;10.40;;;6.85;;
75021;SDS011;63583;49.976;20.182;2023-07-22T00:17:07;9.40;;;6.80;;
75021;SDS011;63583;49.976;20.182;2023-07-22T00:19:33;11.48;;;7.65;;
75021;SDS011;63583;49.976;20.182;2023-07-22T00:22:00;11.02;;;7.75;;
75021;SDS011;63583;49.976;20.182;2023-07-22T00:24:26;10.73;;;7.53;;
75021;SDS011;63583;49.976;20.182;2023-07-22T00:26:51;10.02;;;7.85;;
75021;SDS011;63583;49.976;20.182;2023-07-22T00:29:17;11.48;;;8.63;;
75021;SDS011;63583;49.976;20.182;2023-07-22T00:31:43;11.77;;;8.45;;
75021;SDS011;63583;49.976;20.182;2023-07-22T00:34:09;12.25;;;8.25;;
75021;SDS011;63583;49.976;20.182;2023-07-22T00:36:35;12.07;;;7.85;;
75021;SDS011;63583;49.976;20.182;2023-07-22T00:39:03;12.02;;;8.00;;
75021;SDS011;63583;49.976;20.182;2023-07-22T00:41:29;11.00;;;7.72;;
75021;SDS011;63583;49.976;20.182;2023-07-22T00:43:55;9.90;;;7.53;;
75021;SDS011;63583;49.976;20.182;2023-07-22T00:46:21;10.02;;;7.25;;
75021;SDS011;63583;49.976;20.182;2023-07-22T00:48:47;9.82;;;7.30;;
75021;SDS011;63583;49.976;20.182;2023-07-22T00:51:13;12.35;;;7.75;;
75021;SDS011;63583;49.976;20.182;2023-07-22T00:53:39;13.18;;;9.05;;
75021;SDS011;63583;49.976;20.182;2023-07-22T00:56:05;13.38;;;8.95;;
75021;SDS011;63583;49.976;20.182;2023-07-22T00:58:31;10.82;;;8.10;;
75021;SDS011;63583;49.976;20.182;2023-07-22T01:00:58;12.57;;;8.80;;
75021;SDS011;63583;49.976;20.182;2023-07-22T01:03:24;12.75;;;8.95;;
75021;SDS011;63583;49.976;20.182;2023-07-22T01:05:50;13.80;;;8.77;;
75021;SDS011;63583;49.976;20.182;2023-07-22T01:08:18;11.88;;;9.23;;
75021;SDS011;63583;49.976;20.182;2023-07-22T01:10:43;11.27;;;9.15;;
75021;SDS011;63583;49.976;20.182;2023-07-22T01:13:09;11.95;;;8.95;;
75021;SDS011;63583;49.976;20.182;2023-07-22T01:15:35;10.27;;;8.45;;
75021;SDS011;63583;49.976;20.182;2023-07-22T01:18:03;12.27;;;9.52;;
75021;SDS011;63583;49.976;20.182;2023-07-22T01:20:29;12.98;;;9.20;;
75021;SDS011;63583;49.976;20.182;2023-07-22T01:22:55;12.43;;;9.35;;
75021;SDS011;63583;49.976;20.182;2023-07-22T01:25:21;12.05;;;9.50;;
75021;SDS011;63583;49.976;20.182;2023-07-22T01:27:48;12.75;;;9.50;;
75021;SDS011;63583;49.976;20.182;2023-07-22T01:30:15;13.30;;;9.43;;
75021;SDS011;63583;49.976;20.182;2023-07-22T01:32:41;11.43;;;8.98;;
75021;SDS011;63583;49.976;20.182;2023-07-22T01:35:07;11.35;;;9.05;;
75021;SDS011;63583;49.976;20.182;2023-07-22T01:37:33;13.80;;;10.25;;
75021;SDS011;63583;49.976;20.182;2023-07-22T01:39:59;12.20;;;9.13;;
75021;SDS011;63583;49.976;20.182;2023-07-22T01:42:25;12.30;;;8.70;;
75021;SDS011;63583;49.976;20.182;2023-07-22T01:44:51;11.65;;;9.02;;
75021;SDS011;63583;49.976;20.182;2023-07-22T01:47:17;12.05;;;8.63;;
75021;SDS011;63583;49.976;20.182;2023-07-22T01:49:43;11.27;;;8.98;;
75021;SDS011;63583;49.976;20.182;2023-07-22T01:52:09;12.02;;;8.20;;
75021;SDS011;63583;49.976;20.182;2023-07-22T01:54:35;11.45;;;8.68;;
75021;SDS011;63583;49.976;20.182;2023-07-22T01:57:00;12.02;;;8.77;;
75021;SDS011;63583;49.976;20.182;2023-07-22T01:59:26;11.32;;;8.45;;
75021;SDS011;63583;49.976;20.182;2023-07-22T02:01:52;12.45;;;9.20;;
75021;SDS011;63583;49.976;20.182;2023-07-22T02:04:17;13.38;;;9.13;;
75021;SDS011;63583;49.976;20.182;2023-07-22T02:06:43;10.18;;;8.05;;
75021;SDS011;63583;49.976;20.182;2023-07-22T02:09:10;9.35;;;8.00;;
75021;SDS011;63583;49.976;20.182;2023-07-22T02:11:39;11.75;;;8.82;;
75021;SDS011;63583;49.976;20.182;2023-07-22T02:14:05;12.63;;;9.10;;
75021;SDS011;63583;49.976;20.182;2023-07-22T02:16:33;11.20;;;8.85;;
75021;SDS011;63583;49.976;20.182;2023-07-22T02:19:00;12.70;;;8.63;;
75021;SDS011;63583;49.976;20.182;2023-07-22T02:21:25;11.40;;;9.00;;
75021;SDS011;63583;49.976;20.182;2023-07-22T02:23:51;12.20;;;8.45;;
75021;SDS011;63583;49.976;20.182;2023-07-22T02:26:17;12.52;;;8.82;;
75021;SDS011;63583;49.976;20.182;2023-07-22T02:28:42;10.98;;;8.25;;
75021;SDS011;63583;49.976;20.182;2023-07-22T02:31:08;11.30;;;7.50;;
75021;SDS011;63583;49.976;20.182;2023-07-22T02:33:34;8.90;;;7.43;;
75021;SDS011;63583;49.976;20.182;2023-07-22T02:36:00;9.55;;;7.07;;
75021;SDS011;63583;49.976;20.182;2023-07-22T02:38:26;11.00;;;6.95;;
75021;SDS011;63583;49.976;20.182;2023-07-22T02:40:51;9.20;;;6.75;;
75021;SDS011;63583;49.976;20.182;2023-07-22T02:43:17;9.68;;;7.32;;
75021;SDS011;63583;49.976;20.182;2023-07-22T02:45:43;8.75;;;6.22;;
75021;SDS011;63583;49.976;20.182;2023-07-22T02:48:09;9.25;;;6.55;;
75021;SDS011;63583;49.976;20.182;2023-07-22T02:50:35;7.68;;;6.53;;
75021;SDS011;63583;49.976;20.182;2023-07-22T02:53:02;8.70;;;6.25;;
75021;SDS011;63583;49.976;20.182;2023-07-22T02:55:28;8.10;;;6.53;;
75021;SDS011;63583;49.976;20.182;2023-07-22T02:57:53;8.95;;;5.78;;
75021;SDS011;63583;49.976;20.182;2023-07-22T03:00:20;9.52;;;5.60;;
75021;SDS011;63583;49.976;20.182;2023-07-22T03:02:49;7.15;;;5.30;;
75021;SDS011;63583;49.976;20.182;2023-07-22T03:05:16;7.15;;;5.47;;
75021;SDS011;63583;49.976;20.182;2023-07-22T03:07:42;8.05;;;5.70;;
75021;SDS011;63583;49.976;20.182;2023-07-22T03:10:08;9.20;;;5.80;;
75021;SDS011;63583;49.976;20.182;2023-07-22T03:12:34;7.80;;;5.70;;
75021;SDS011;63583;49.976;20.182;2023-07-22T03:15:01;6.78;;;5.05;;
75021;SDS011;63583;49.976;20.182;2023-07-22T03:17:29;6.07;;;4.80;;
75021;SDS011;63583;49.976;20.182;2023-07-22T03:19:55;7.38;;;4.80;;
75021;SDS011;63583;49.976;20.182;2023-07-22T03:22:21;6.18;;;4.18;;
75021;SDS011;63583;49.976;20.182;2023-07-22T03:24:47;7.40;;;4.82;;
75021;SDS011;63583;49.976;20.182;2023-07-22T03:27:13;6.03;;;4.35;;
75021;SDS011;63583;49.976;20.182;2023-07-22T03:29:40;5.20;;;4.10;;
75021;SDS011;63583;49.976;20.182;2023-07-22T03:32:06;5.03;;;3.67;;
75021;SDS011;63583;49.976;20.182;2023-07-22T03:34:33;6.03;;;3.75;;
75021;SDS011;63583;49.976;20.182;2023-07-22T03:36:58;4.35;;;3.25;;
75021;SDS011;63583;49.976;20.182;2023-07-22T03:39:24;4.72;;;3.20;;
75021;SDS011;63583;49.976;20.182;2023-07-22T03:41:50;3.85;;;2.72;;
75021;SDS011;63583;49.976;20.182;2023-07-22T03:44:16;4.90;;;2.80;;
75021;SDS011;63583;49.976;20.182;2023-07-22T03:46:41;3.95;;;2.70;;
75021;SDS011;63583;49.976;20.182;2023-07-22T03:49:07;5.13;;;2.83;;
75021;SDS011;63583;49.976;20.182;2023-07-22T03:51:33;4.55;;;2.80;;
75021;SDS011;63583;49.976;20.182;2023-07-22T03:53:59;4.53;;;2.53;;
75021;SDS011;63583;49.976;20.182;2023-07-22T03:56:25;4.60;;;2.30;;
75021;SDS011;63583;49.976;20.182;2023-07-22T03:58:52;4.47;;;2.83;;
75021;SDS011;63583;49.976;20.182;2023-07-22T04:01:18;4.32;;;2.60;;
75021;SDS011;63583;49.976;20.182;2023-07-22T04:03:45;4.55;;;2.40;;
75021;SDS011;63583;49.976;20.182;2023-07-22T04:06:10;4.20;;;2.90;;
75021;SDS011;63583;49.976;20.182;2023-07-22T04:08:36;4.32;;;2.50;;
75021;SDS011;63583;49.976;20.182;2023-07-22T04:11:02;4.93;;;2.80;;
75021;SDS011;63583;49.976;20.182;2023-07-22T04:13:28;5.13;;;2.75;;
75021;SDS011;63583;49.976;20.182;2023-07-22T04:15:54;5.45;;;3.00;;
75021;SDS011;63583;49.976;20.182;2023-07-22T04:18:20;4.45;;;3.25;;
75021;SDS011;63583;49.976;20.182;2023-07-22T04:20:46;4.47;;;3.10;;
75021;SDS011;63583;49.976;20.182;2023-07-22T04:23:16;4.55;;;2.90;;
75021;SDS011;63583;49.976;20.182;2023-07-22T04:25:42;4.53;;;3.00;;
75021;SDS011;63583;49.976;20.182;2023-07-22T04:28:09;3.90;;;2.80;;
75021;SDS011;63583;49.976;20.182;2023-07-22T04:30:35;3.70;;;2.60;;
75021;SDS011;63583;49.976;20.182;2023-07-22T04:33:02;4.32;;;3.25;;
75021;SDS011;63583;49.976;20.182;2023-07-22T04:35:36;4.35;;;2.97;;
75021;SDS011;63583;49.976;20.182;2023-07-22T04:38:03;4.47;;;3.28;;
75021;SDS011;63583;49.976;20.182;2023-07-22T04:40:29;3.38;;;2.65;;
75021;SDS011;63583;49.976;20.182;2023-07-22T04:42:56;4.18;;;3.17;;
75021;SDS011;63583;49.976;20.182;2023-07-22T04:45:22;5.05;;;3.47;;
75021;SDS011;63583;49.976;20.182;2023-07-22T04:47:51;7.10;;;4.65;;
75021;SDS011;63583;49.976;20.182;2023-07-22T04:50:17;7.40;;;5.00;;
75021;SDS011;63583;49.976;20.182;2023-07-22T04:52:44;8.65;;;5.20;;
75021;SDS011;63583;49.976;20.182;2023-07-22T04:55:11;7.07;;;4.95;;
75021;SDS011;63583;49.976;20.182;2023-07-22T04:57:38;6.72;;;5.53;;
75021;SDS011;63583;49.976;20.182;2023-07-22T05:00:10;7.47;;;5.45;;
75021;SDS011;63583;49.976;20.182;2023-07-22T05:02:42;9.63;;;6.15;;
75021;SDS011;63583;49.976;20.182;2023-07-22T05:05:14;9.63;;;7.03;;
75021;SDS011;63583;49.976;20.182;2023-07-22T05:07:41;11.70;;;7.43;;
75021;SDS011;63583;49.976;20.182;2023-07-22T05:10:07;11.10;;;7.90;;
75021;SDS011;63583;49.976;20.182;2023-07-22T05:12:37;11.50;;;8.95;;
75021;SDS011;63583;49.976;20.182;2023-07-22T05:15:04;14.05;;;9.07;;
75021;SDS011;63583;49.976;20.182;2023-07-22T05:17:31;12.85;;;9.23;;
75021;SDS011;63583;49.976;20.182;2023-07-22T05:19:57;11.73;;;8.60;;
75021;SDS011;63583;49.976;20.182;2023-07-22T05:22:23;13.27;;;8.63;;
75021;SDS011;63583;49.976;20.182;2023-07-22T05:24:49;13.52;;;9.05;;
75021;SDS011;63583;49.976;20.182;2023-07-22T05:27:16;13.38;;;8.63;;
75021;SDS011;63583;49.976;20.182;2023-07-22T05:29:43;14.02;;;8.88;;
75021;SDS011;63583;49.976;20.182;2023-07-22T05:32:09;15.40;;;10.00;;
75021;SDS011;63583;49.976;20.182;2023-07-22T05:34:35;12.32;;;9.10;;
75021;SDS011;63583;49.976;20.182;2023-07-22T05:37:01;12.15;;;9.02;;
75021;SDS011;63583;49.976;20.182;2023-07-22T05:39:26;13.07;;;9.07;;
75021;SDS011;63583;49.976;20.182;2023-07-22T05:41:52;12.43;;;9.73;;
75021;SDS011;63583;49.976;20.182;2023-07-22T05:44:18;13.57;;;9.52;;
75021;SDS011;63583;49.976;20.182;2023-07-22T05:46:44;11.95;;;8.82;;
75021;SDS011;63583;49.976;20.182;2023-07-22T05:49:09;13.43;;;9.48;;
75021;SDS011;63583;49.976;20.182;2023-07-22T05:51:36;12.70;;;8.98;;
75021;SDS011;63583;49.976;20.182;2023-07-22T05:54:02;11.80;;;9.07;;
75021;SDS011;63583;49.976;20.182;2023-07-22T05:56:28;12.70;;;9.20;;
75021;SDS011;63583;49.976;20.182;2023-07-22T05:58:54;11.40;;;8.45;;
75021;SDS011;63583;49.976;20.182;2023-07-22T06:01:20;10.52;;;8.88;;
75021;SDS011;63583;49.976;20.182;2023-07-22T06:03:45;13.00;;;8.20;;
75021;SDS011;63583;49.976;20.182;2023-07-22T06:06:11;10.15;;;8.25;;
75021;SDS011;63583;49.976;20.182;2023-07-22T06:08:37;10.80;;;8.55;;
75021;SDS011;63583;49.976;20.182;2023-07-22T06:11:03;12.23;;;8.63;;
75021;SDS011;63583;49.976;20.182;2023-07-22T06:13:28;9.88;;;7.97;;
75021;SDS011;63583;49.976;20.182;2023-07-22T06:15:54;14.15;;;7.82;;
75021;SDS011;63583;49.976;20.182;2023-07-22T06:18:20;11.45;;;7.47;;
75021;SDS011;63583;49.976;20.182;2023-07-22T06:20:46;10.60;;;7.95;;
75021;SDS011;63583;49.976;20.182;2023-07-22T06:23:11;11.38;;;7.43;;
75021;SDS011;63583;49.976;20.182;2023-07-22T06:25:37;10.15;;;8.10;;
75021;SDS011;63583;49.976;20.182;2023-07-22T06:28:03;11.00;;;8.35;;
75021;SDS011;63583;49.976;20.182;2023-07-22T06:30:29;9.43;;;7.70;;
75021;SDS011;63583;49.976;20.182;2023-07-22T06:32:55;13.18;;;8.63;;
75021;SDS011;63583;49.976;20.182;2023-07-22T06:35:21;11.68;;;7.95;;
75021;SDS011;63583;49.976;20.182;2023-07-22T06:37:47;11.63;;;8.35;;
75021;SDS011;63583;49.976;20.182;2023-07-22T06:40:13;12.85;;;9.55;;
75021;SDS011;63583;49.976;20.182;2023-07-22T06:42:38;12.93;;;9.35;;
75021;SDS011;63583;49.976;20.182;2023-07-22T06:45:05;12.15;;;9.32;;
75021;SDS011;63583;49.976;20.182;2023-07-22T06:47:31;12.80;;;9.88;;
75021;SDS011;63583;49.976;20.182;2023-07-22T06:49:57;13.32;;;9.45;;
75021;SDS011;63583;49.976;20.182;2023-07-22T06:52:23;11.90;;;9.23;;
75021;SDS011;63583;49.976;20.182;2023-07-22T06:54:49;12.40;;;8.45;;
75021;SDS011;63583;49.976;20.182;2023-07-22T06:57:15;12.15;;;9.25;;
75021;SDS011;63583;49.976;20.182;2023-07-22T06:59:41;12.07;;;8.57;;
75021;SDS011;63583;49.976;20.182;2023-07-22T07:02:06;10.57;;;8.40;;
75021;SDS011;63583;49.976;20.182;2023-07-22T07:04:32;11.50;;;8.05;;
75021;SDS011;63583;49.976;20.182;2023-07-22T07:06:58;13.65;;;8.43;;
75021;SDS011;63583;49.976;20.182;2023-07-22T07:09:25;14.95;;;9.70;;
75021;SDS011;63583;49.976;20.182;2023-07-22T07:11:50;13.48;;;9.60;;
75021;SDS011;63583;49.976;20.182;2023-07-22T07:14:17;12.95;;;8.82;;
75021;SDS011;63583;49.976;20.182;2023-07-22T07:16:43;15.10;;;8.70;;
75021;SDS011;63583;49.976;20.182;2023-07-22T07:19:09;13.52;;;9.50;;
75021;SDS011;63583;49.976;20.182;2023-07-22T07:21:35;11.40;;;8.38;;
75021;SDS011;63583;49.976;20.182;2023-07-22T07:24:01;12.68;;;9.68;;
75021;SDS011;63583;49.976;20.182;2023-07-22T07:26:27;12.75;;;9.05;;
75021;SDS011;63583;49.976;20.182;2023-07-22T07:28:53;10.07;;;8.50;;
75021;SDS011;63583;49.976;20.182;2023-07-22T07:31:19;12.85;;;8.70;;
75021;SDS011;63583;49.976;20.182;2023-07-22T07:33:45;10.07;;;8.30;;
75021;SDS011;63583;49.976;20.182;2023-07-22T07:36:11;10.38;;;7.60;;
75021;SDS011;63583;49.976;20.182;2023-07-22T07:38:37;10.30;;;7.95;;
75021;SDS011;63583;49.976;20.182;2023-07-22T07:41:05;9.43;;;7.40;;
75021;SDS011;63583;49.976;20.182;2023-07-22T07:43:42;12.43;;;8.60;;
75021;SDS011;63583;49.976;20.182;2023-07-22T07:46:12;12.38;;;8.68;;
75021;SDS011;63583;49.976;20.182;2023-07-22T07:48:46;12.88;;;8.25;;
75021;SDS011;63583;49.976;20.182;2023-07-22T07:51:14;9.23;;;7.65;;
75021;SDS011;63583;49.976;20.182;2023-07-22T07:53:41;12.80;;;8.40;;
75021;SDS011;63583;49.976;20.182;2023-07-22T07:56:08;9.48;;;7.95;;
75021;SDS011;63583;49.976;20.182;2023-07-22T07:58:33;11.85;;;8.35;;
75021;SDS011;63583;49.976;20.182;2023-07-22T08:00:59;11.57;;;7.90;;
75021;SDS011;63583;49.976;20.182;2023-07-22T08:03:25;11.27;;;8.02;;
75021;SDS011;63583;49.976;20.182;2023-07-22T08:05:51;8.43;;;6.78;;
75021;SDS011;63583;49.976;20.182;2023-07-22T08:08:16;7.80;;;6.22;;
75021;SDS011;63583;49.976;20.182;2023-07-22T08:10:43;10.27;;;6.90;;
75021;SDS011;63583;49.976;20.182;2023-07-22T08:13:10;8.68;;;7.53;;
75021;SDS011;63583;49.976;20.182;2023-07-22T08:15:36;8.70;;;6.63;;
75021;SDS011;63583;49.976;20.182;2023-07-22T08:18:03;8.70;;;6.40;;
75021;SDS011;63583;49.976;20.182;2023-07-22T08:20:30;6.97;;;5.53;;
75021;SDS011;63583;49.976;20.182;2023-07-22T08:22:56;7.35;;;6.28;;
75021;SDS011;63583;49.976;20.182;2023-07-22T08:25:22;6.70;;;5.28;;
75021;SDS011;63583;49.976;20.182;2023-07-22T08:27:47;8.00;;;5.88;;
75021;SDS011;63583;49.976;20.182;2023-07-22T08:30:13;7.80;;;5.95;;
75021;SDS011;63583;49.976;20.182;2023-07-22T08:32:39;7.78;;;5.82;;
75021;SDS011;63583;49.976;20.182;2023-07-22T08:35:05;8.13;;;6.07;;
75021;SDS011;63583;49.976;20.182;2023-07-22T08:37:32;8.65;;;5.88;;
75021;SDS011;63583;49.976;20.182;2023-07-22T08:39:58;8.35;;;5.75;;
75021;SDS011;63583;49.976;20.182;2023-07-22T08:42:25;8.60;;;4.80;;
75021;SDS011;63583;49.976;20.182;2023-07-22T08:44:55;6.00;;;5.10;;
75021;SDS011;63583;49.976;20.182;2023-07-22T08:47:22;5.15;;;4.30;;
75021;SDS011;63583;49.976;20.182;2023-07-22T08:52:17;5.30;;;3.88;;
75021;SDS011;63583;49.976;20.182;2023-07-22T08:54:43;4.60;;;3.72;;
75021;SDS011;63583;49.976;20.182;2023-07-22T08:57:10;5.68;;;3.92;;
75021;SDS011;63583;49.976;20.182;2023-07-22T08:59:36;4.82;;;4.07;;
75021;SDS011;63583;49.976;20.182;2023-07-22T09:02:03;5.10;;;4.15;;
75021;SDS011;63583;49.976;20.182;2023-07-22T09:04:30;5.57;;;3.75;;
75021;SDS011;63583;49.976;20.182;2023-07-22T09:06:56;5.07;;;3.92;;
75021;SDS011;63583;49.976;20.182;2023-07-22T09:09:23;8.77;;;4.45;;
75021;SDS011;63583;49.976;20.182;2023-07-22T09:11:50;6.03;;;3.50;;
75021;SDS011;63583;49.976;20.182;2023-07-22T09:14:20;5.50;;;3.55;;
75021;SDS011;63583;49.976;20.182;2023-07-22T09:16:47;5.60;;;3.70;;
75021;SDS011;63583;49.976;20.182;2023-07-22T09:19:13;5.53;;;3.88;;
75021;SDS011;63583;49.976;20.182;2023-07-22T09:21:38;6.03;;;4.60;;
75021;SDS011;63583;49.976;20.182;2023-07-22T09:24:21;5.38;;;4.32;;
75021;SDS011;63583;49.976;20.182;2023-07-22T09:26:48;8.95;;;4.50;;
75021;SDS011;63583;49.976;20.182;2023-07-22T09:29:14;5.35;;;4.55;;
75021;SDS011;63583;49.976;20.182;2023-07-22T09:31:48;6.10;;;4.53;;
75021;SDS011;63583;49.976;20.182;2023-07-22T09:34:18;7.13;;;4.43;;
75021;SDS011;63583;49.976;20.182;2023-07-22T09:36:54;6.40;;;4.10;;
75021;SDS011;63583;49.976;20.182;2023-07-22T09:39:21;4.82;;;4.18;;
75021;SDS011;63583;49.976;20.182;2023-07-22T09:41:48;5.53;;;4.55;;
75021;SDS011;63583;49.976;20.182;2023-07-22T09:44:14;5.80;;;4.55;;
75021;SDS011;63583;49.976;20.182;2023-07-22T09:46:40;7.20;;;4.05;;
75021;SDS011;63583;49.976;20.182;2023-07-22T09:49:09;4.40;;;3.60;;
75021;SDS011;63583;49.976;20.182;2023-07-22T09:51:35;5.30;;;3.63;;
75021;SDS011;63583;49.976;20.182;2023-07-22T09:54:03;4.90;;;3.33;;
75021;SDS011;63583;49.976;20.182;2023-07-22T09:56:47;4.78;;;4.22;;
75021;SDS011;63583;49.976;20.182;2023-07-22T09:59:13;4.80;;;3.47;;
75021;SDS011;63583;49.976;20.182;2023-07-22T10:01:40;5.00;;;3.42;;
75021;SDS011;63583;49.976;20.182;2023-07-22T10:04:06;4.28;;;3.30;;
75021;SDS011;63583;49.976;20.182;2023-07-22T10:06:33;5.55;;;3.40;;
75021;SDS011;63583;49.976;20.182;2023-07-22T10:09:03;4.93;;;3.03;;
75021;SDS011;63583;49.976;20.182;2023-07-22T10:11:34;5.25;;;3.10;;
75021;SDS011;63583;49.976;20.182;2023-07-22T10:14:04;5.53;;;3.50;;
75021;SDS011;63583;49.976;20.182;2023-07-22T10:16:30;4.03;;;3.05;;
75021;SDS011;63583;49.976;20.182;2023-07-22T10:18:58;5.55;;;3.25;;
75021;SDS011;63583;49.976;20.182;2023-07-22T10:21:25;4.05;;;2.97;;
75021;SDS011;63583;49.976;20.182;2023-07-22T10:23:52;7.05;;;2.90;;
75021;SDS011;63583;49.976;20.182;2023-07-22T10:26:19;4.05;;;2.72;;
75021;SDS011;63583;49.976;20.182;2023-07-22T10:28:46;4.68;;;2.65;;
75021;SDS011;63583;49.976;20.182;2023-07-22T10:31:13;4.45;;;3.03;;
75021;SDS011;63583;49.976;20.182;2023-07-22T10:33:39;4.03;;;2.90;;
75021;SDS011;63583;49.976;20.182;2023-07-22T10:36:08;4.85;;;3.33;;
75021;SDS011;63583;49.976;20.182;2023-07-22T10:38:38;4.47;;;2.72;;
75021;SDS011;63583;49.976;20.182;2023-07-22T10:41:16;4.18;;;2.53;;
75021;SDS011;63583;49.976;20.182;2023-07-22T10:44:05;4.65;;;2.67;;
75021;SDS011;63583;49.976;20.182;2023-07-22T10:46:32;5.30;;;2.92;;
75021;SDS011;63583;49.976;20.182;2023-07-22T10:49:12;4.03;;;2.70;;
75021;SDS011;63583;49.976;20.182;2023-07-22T10:51:39;4.30;;;2.78;;
75021;SDS011;63583;49.976;20.182;2023-07-22T10:54:12;3.72;;;2.70;;
75021;SDS011;63583;49.976;20.182;2023-07-22T10:56:40;4.75;;;2.85;;
75021;SDS011;63583;49.976;20.182;2023-07-22T10:59:09;3.45;;;2.63;;
75021;SDS011;63583;49.976;20.182;2023-07-22T11:01:37;3.13;;;2.25;;
75021;SDS011;63583;49.976;20.182;2023-07-22T11:07:03;3.53;;;2.45;;
75021;SDS011;63583;49.976;20.182;2023-07-22T11:12:17;3.05;;;2.20;;
75021;SDS011;63583;49.976;20.182;2023-07-22T11:14:47;4.30;;;2.38;;
75021;SDS011;63583;49.976;20.182;2023-07-22T11:17:13;3.33;;;1.98;;
75021;SDS011;63583;49.976;20.182;2023-07-22T11:19:39;3.10;;;2.10;;
75021;SDS011;63583;49.976;20.182;2023-07-22T11:22:05;3.55;;;2.38;;
75021;SDS011;63583;49.976;20.182;2023-07-22T11:24:32;3.90;;;2.38;;
75021;SDS011;63583;49.976;20.182;2023-07-22T11:27:06;4.00;;;2.22;;
75021;SDS011;63583;49.976;20.182;2023-07-22T11:29:34;3.92;;;2.38;;
75021;SDS011;63583;49.976;20.182;2023-07-22T11:32:00;4.38;;;2.10;;
75021;SDS011;63583;49.976;20.182;2023-07-22T11:34:27;3.28;;;2.33;;
75021;SDS011;63583;49.976;20.182;2023-07-22T11:36:53;3.03;;;2.22;;
75021;SDS011;63583;49.976;20.182;2023-07-22T11:39:20;2.97;;;2.20;;
75021;SDS011;63583;49.976;20.182;2023-07-22T11:41:47;4.68;;;2.00;;
75021;SDS011;63583;49.976;20.182;2023-07-22T11:44:14;2.60;;;1.90;;
75021;SDS011;63583;49.976;20.182;2023-07-22T11:49:23;2.78;;;1.90;;
75021;SDS011;63583;49.976;20.182;2023-07-22T11:51:50;3.50;;;2.00;;
75021;SDS011;63583;49.976;20.182;2023-07-22T11:54:17;3.33;;;2.20;;
75021;SDS011;63583;49.976;20.182;2023-07-22T11:56:45;2.95;;;1.80;;
75021;SDS011;63583;49.976;20.182;2023-07-22T11:59:11;2.90;;;1.80;;
75021;SDS011;63583;49.976;20.182;2023-07-22T12:01:36;3.05;;;2.00;;
75021;SDS011;63583;49.976;20.182;2023-07-22T12:04:02;4.43;;;2.25;;
75021;SDS011;63583;49.976;20.182;2023-07-22T12:06:36;3.47;;;2.28;;
75021;SDS011;63583;49.976;20.182;2023-07-22T12:09:01;2.70;;;1.90;;
75021;SDS011;63583;49.976;20.182;2023-07-22T12:11:27;3.00;;;2.10;;
75021;SDS011;63583;49.976;20.182;2023-07-22T12:16:37;2.58;;;1.80;;
75021;SDS011;63583;49.976;20.182;2023-07-22T12:19:04;5.65;;;2.63;;
75021;SDS011;63583;49.976;20.182;2023-07-22T12:21:31;3.88;;;2.47;;
75021;SDS011;63583;49.976;20.182;2023-07-22T12:23:57;3.42;;;2.30;;
75021;SDS011;63583;49.976;20.182;2023-07-22T12:26:23;3.65;;;2.60;;
75021;SDS011;63583;49.976;20.182;2023-07-22T12:28:48;3.70;;;2.40;;
75021;SDS011;63583;49.976;20.182;2023-07-22T12:31:14;5.10;;;3.20;;
75021;SDS011;63583;49.976;20.182;2023-07-22T12:33:40;3.90;;;2.92;;
75021;SDS011;63583;49.976;20.182;2023-07-22T12:36:07;3.75;;;2.58;;
75021;SDS011;63583;49.976;20.182;2023-07-22T12:38:33;3.78;;;2.60;;
75021;SDS011;63583;49.976;20.182;2023-07-22T12:41:00;3.97;;;2.78;;
75021;SDS011;63583;49.976;20.182;2023-07-22T12:43:26;4.68;;;2.90;;
75021;SDS011;63583;49.976;20.182;2023-07-22T12:45:51;4.05;;;2.47;;
75021;SDS011;63583;49.976;20.182;2023-07-22T12:48:17;3.55;;;2.33;;
75021;SDS011;63583;49.976;20.182;2023-07-22T12:50:43;3.65;;;2.40;;
75021;SDS011;63583;49.976;20.182;2023-07-22T12:53:09;2.80;;;2.10;;
75021;SDS011;63583;49.976;20.182;2023-07-22T12:55:35;2.85;;;2.20;;
75021;SDS011;63583;49.976;20.182;2023-07-22T12:58:01;3.88;;;2.20;;
75021;SDS011;63583;49.976;20.182;2023-07-22T13:00:27;5.38;;;2.63;;
75021;SDS011;63583;49.976;20.182;2023-07-22T13:02:53;3.88;;;2.22;;
75021;SDS011;63583;49.976;20.182;2023-07-22T13:05:19;4.57;;;2.90;;
75021;SDS011;63583;49.976;20.182;2023-07-22T13:07:46;4.03;;;2.53;;
75021;SDS011;63583;49.976;20.182;2023-07-22T13:10:12;4.28;;;2.30;;
75021;SDS011;63583;49.976;20.182;2023-07-22T13:12:48;4.13;;;2.50;;
75021;SDS011;63583;49.976;20.182;2023-07-22T13:15:13;3.88;;;2.42;;
75021;SDS011;63583;49.976;20.182;2023-07-22T13:17:39;3.22;;;2.50;;
75021;SDS011;63583;49.976;20.182;2023-07-22T13:20:05;6.28;;;2.70;;
75021;SDS011;63583;49.976;20.182;2023-07-22T13:22:34;4.22;;;2.60;;
75021;SDS011;63583;49.976;20.182;2023-07-22T13:25:01;3.97;;;2.50;;
75021;SDS011;63583;49.976;20.182;2023-07-22T13:27:27;4.13;;;2.40;;
75021;SDS011;63583;49.976;20.182;2023-07-22T13:29:53;3.55;;;2.53;;
75021;SDS011;63583;49.976;20.182;2023-07-22T13:32:19;3.22;;;2.47;;
75021;SDS011;63583;49.976;20.182;2023-07-22T13:34:47;3.22;;;2.28;;
75021;SDS011;63583;49.976;20.182;2023-07-22T13:37:13;2.90;;;2.33;;
75021;SDS011;63583;49.976;20.182;2023-07-22T13:39:39;4.72;;;2.70;;
75021;SDS011;63583;49.976;20.182;2023-07-22T13:42:04;3.80;;;2.40;;
75021;SDS011;63583;49.976;20.182;2023-07-22T13:44:30;4.78;;;2.45;;
75021;SDS011;63583;49.976;20.182;2023-07-22T13:46:56;3.47;;;2.50;;
75021;SDS011;63583;49.976;20.182;2023-07-22T13:49:21;3.10;;;2.30;;
75021;SDS011;63583;49.976;20.182;2023-07-22T13:51:48;4.40;;;2.92;;
75021;SDS011;63583;49.976;20.182;2023-07-22T13:54:13;4.53;;;2.30;;
75021;SDS011;63583;49.976;20.182;2023-07-22T13:56:39;3.90;;;2.72;;
75021;SDS011;63583;49.976;20.182;2023-07-22T13:59:06;5.70;;;2.58;;
75021;SDS011;63583;49.976;20.182;2023-07-22T14:01:33;3.47;;;2.63;;
75021;SDS011;63583;49.976;20.182;2023-07-22T14:03:58;4.38;;;2.30;;
75021;SDS011;63583;49.976;20.182;2023-07-22T14:06:24;4.07;;;2.63;;
75021;SDS011;63583;49.976;20.182;2023-07-22T14:08:50;3.22;;;2.50;;
75021;SDS011;63583;49.976;20.182;2023-07-22T14:11:15;3.53;;;2.70;;
75021;SDS011;63583;49.976;20.182;2023-07-22T14:13:43;4.38;;;2.47;;
75021;SDS011;63583;49.976;20.182;2023-07-22T14:16:10;4.95;;;2.47;;
75021;SDS011;63583;49.976;20.182;2023-07-22T14:18:37;5.47;;;2.42;;
75021;SDS011;63583;49.976;20.182;2023-07-22T14:21:03;3.75;;;2.38;;
75021;SDS011;63583;49.976;20.182;2023-07-22T14:23:29;3.72;;;2.30;;
75021;SDS011;63583;49.976;20.182;2023-07-22T14:25:56;4.22;;;2.40;;
75021;SDS011;63583;49.976;20.182;2023-07-22T14:28:22;3.47;;;2.50;;
75021;SDS011;63583;49.976;20.182;2023-07-22T14:30:48;3.22;;;2.30;;
75021;SDS011;63583;49.976;20.182;2023-07-22T14:33:14;3.72;;;2.38;;
75021;SDS011;63583;49.976;20.182;2023-07-22T14:35:39;3.53;;;2.35;;
75021;SDS011;63583;49.976;20.182;2023-07-22T14:38:05;3.67;;;2.40;;
75021;SDS011;63583;49.976;20.182;2023-07-22T14:40:31;4.20;;;2.25;;
75021;SDS011;63583;49.976;20.182;2023-07-22T14:42:57;3.35;;;2.20;;